sensor_id;sensor_type;location;lat;lon;timestamp;temperature;humidity
70762;DHT22;58360;0.000;0.000;2022-12-17T00:00:01;-2.70;89.60
70762;DHT22;58360;0.000;0.000;2022-12-17T00:02:45;-2.80;89.60
70762;DHT22;58360;0.000;0.000;2022-12-17T00:05:29;-2.80;89.80
70762;DHT22;58360;0.000;0.000;2022-12-17T00:08:13;-2.90;89.70
70762;DHT22;58360;0.000;0.000;2022-12-17T00:10:57;-2.90;89.40
70762;DHT22;58360;0.000;0.000;2022-12-17T00:13:42;-2.80;89.60
70762;DHT22;58360;0.000;0.000;2022-12-17T00:16:26;-3.00;89.60
70762;DHT22;58360;0.000;0.000;2022-12-17T00:19:11;-2.90;89.80
70762;DHT22;58360;0.000;0.000;2022-12-17T00:21:55;-2.70;89.90
70762;DHT22;58360;0.000;0.000;2022-12-17T00:24:39;-2.80;89.10
70762;DHT22;58360;0.000;0.000;2022-12-17T00:27:23;-2.90;88.90
70762;DHT22;58360;0.000;0.000;2022-12-17T00:30:07;-2.90;89.10
70762;DHT22;58360;0.000;0.000;2022-12-17T00:33:13;-3.00;89.10
70762;DHT22;58360;0.000;0.000;2022-12-17T00:35:57;-2.90;89.00
70762;DHT22;58360;0.000;0.000;2022-12-17T00:38:41;-2.90;89.20
70762;DHT22;58360;0.000;0.000;2022-12-17T00:41:25;-2.90;89.30
70762;DHT22;58360;0.000;0.000;2022-12-17T00:44:09;-2.90;89.10
70762;DHT22;58360;0.000;0.000;2022-12-17T00:46:53;-2.90;89.10
70762;DHT22;58360;0.000;0.000;2022-12-17T00:49:38;-2.90;89.30
70762;DHT22;58360;0.000;0.000;2022-12-17T00:52:37;-2.90;89.20
70762;DHT22;58360;0.000;0.000;2022-12-17T00:55:22;-2.90;89.10
70762;DHT22;58360;0.000;0.000;2022-12-17T00:58:06;-2.90;89.10
70762;DHT22;58360;0.000;0.000;2022-12-17T01:00:50;-2.90;89.00
70762;DHT22;58360;0.000;0.000;2022-12-17T01:03:34;-2.90;89.10
70762;DHT22;58360;0.000;0.000;2022-12-17T01:06:18;-2.90;88.80
70762;DHT22;58360;0.000;0.000;2022-12-17T01:09:02;-2.80;88.10
70762;DHT22;58360;0.000;0.000;2022-12-17T01:11:46;-2.90;87.80
70762;DHT22;58360;0.000;0.000;2022-12-17T01:14:31;-2.80;88.20
70762;DHT22;58360;0.000;0.000;2022-12-17T01:17:15;-3.10;88.20
70762;DHT22;58360;0.000;0.000;2022-12-17T01:20:09;-3.10;88.50
70762;DHT22;58360;0.000;0.000;2022-12-17T01:23:30;-3.10;88.60
70762;DHT22;58360;0.000;0.000;2022-12-17T01:26:15;-3.10;88.50
70762;DHT22;58360;0.000;0.000;2022-12-17T01:28:59;-3.10;88.80
70762;DHT22;58360;0.000;0.000;2022-12-17T01:31:43;-3.20;88.60
70762;DHT22;58360;0.000;0.000;2022-12-17T01:34:27;-3.20;88.90
70762;DHT22;58360;0.000;0.000;2022-12-17T01:37:11;-3.30;89.60
70762;DHT22;58360;0.000;0.000;2022-12-17T01:39:55;-3.20;88.70
70762;DHT22;58360;0.000;0.000;2022-12-17T01:42:58;-3.30;88.70
70762;DHT22;58360;0.000;0.000;2022-12-17T01:45:43;-3.40;88.80
70762;DHT22;58360;0.000;0.000;2022-12-17T01:48:56;-3.30;88.70
70762;DHT22;58360;0.000;0.000;2022-12-17T01:55:03;-3.50;88.60
70762;DHT22;58360;0.000;0.000;2022-12-17T01:57:48;-3.50;88.80
70762;DHT22;58360;0.000;0.000;2022-12-17T02:00:33;-3.50;89.00
70762;DHT22;58360;0.000;0.000;2022-12-17T02:03:18;-3.60;89.10
70762;DHT22;58360;0.000;0.000;2022-12-17T02:06:20;-3.60;89.20
70762;DHT22;58360;0.000;0.000;2022-12-17T02:12:12;-3.60;88.50
70762;DHT22;58360;0.000;0.000;2022-12-17T02:15:11;-3.60;88.20
70762;DHT22;58360;0.000;0.000;2022-12-17T02:18:03;-3.60;88.00
70762;DHT22;58360;0.000;0.000;2022-12-17T02:20:51;-3.70;88.10
70762;DHT22;58360;0.000;0.000;2022-12-17T02:23:48;-3.60;88.40
70762;DHT22;58360;0.000;0.000;2022-12-17T02:26:55;-3.60;88.10
70762;DHT22;58360;0.000;0.000;2022-12-17T02:29:46;-3.60;88.20
70762;DHT22;58360;0.000;0.000;2022-12-17T02:32:47;-3.50;88.10
70762;DHT22;58360;0.000;0.000;2022-12-17T02:38:53;-3.60;88.00
70762;DHT22;58360;0.000;0.000;2022-12-17T02:41:52;-3.70;87.60
70762;DHT22;58360;0.000;0.000;2022-12-17T02:44:37;-3.70;87.50
70762;DHT22;58360;0.000;0.000;2022-12-17T02:47:30;-3.60;87.40
70762;DHT22;58360;0.000;0.000;2022-12-17T02:50:14;-3.60;87.20
70762;DHT22;58360;0.000;0.000;2022-12-17T02:52:59;-3.60;86.90
70762;DHT22;58360;0.000;0.000;2022-12-17T03:14:21;-3.90;87.90
70762;DHT22;58360;0.000;0.000;2022-12-17T03:17:24;-3.90;88.00
70762;DHT22;58360;0.000;0.000;2022-12-17T03:20:09;-3.80;87.70
70762;DHT22;58360;0.000;0.000;2022-12-17T03:26:04;-3.90;87.80
70762;DHT22;58360;0.000;0.000;2022-12-17T03:28:48;-3.90;87.90
70762;DHT22;58360;0.000;0.000;2022-12-17T03:31:32;-3.90;87.80
70762;DHT22;58360;0.000;0.000;2022-12-17T03:34:16;-3.90;87.80
70762;DHT22;58360;0.000;0.000;2022-12-17T03:37:37;-3.90;88.10
70762;DHT22;58360;0.000;0.000;2022-12-17T03:40:21;-3.90;87.90
70762;DHT22;58360;0.000;0.000;2022-12-17T03:43:09;-3.80;87.60
70762;DHT22;58360;0.000;0.000;2022-12-17T03:45:57;-3.90;87.40
70762;DHT22;58360;0.000;0.000;2022-12-17T03:48:41;-4.00;87.60
70762;DHT22;58360;0.000;0.000;2022-12-17T03:51:25;-4.00;87.80
70762;DHT22;58360;0.000;0.000;2022-12-17T03:54:09;-3.90;87.90
70762;DHT22;58360;0.000;0.000;2022-12-17T04:00:15;-3.90;88.70
70762;DHT22;58360;0.000;0.000;2022-12-17T04:03:20;-3.90;88.60
70762;DHT22;58360;0.000;0.000;2022-12-17T04:06:05;-3.90;88.80
70762;DHT22;58360;0.000;0.000;2022-12-17T04:08:49;-3.90;89.20
70762;DHT22;58360;0.000;0.000;2022-12-17T04:11:33;-3.90;88.80
70762;DHT22;58360;0.000;0.000;2022-12-17T04:14:17;-4.00;88.30
70762;DHT22;58360;0.000;0.000;2022-12-17T04:17:01;-4.00;87.80
70762;DHT22;58360;0.000;0.000;2022-12-17T04:19:47;-4.10;87.40
70762;DHT22;58360;0.000;0.000;2022-12-17T04:22:31;-4.10;87.50
70762;DHT22;58360;0.000;0.000;2022-12-17T04:25:15;-4.10;87.50
70762;DHT22;58360;0.000;0.000;2022-12-17T04:28:00;-4.10;87.40
70762;DHT22;58360;0.000;0.000;2022-12-17T04:30:44;-4.10;87.20
70762;DHT22;58360;0.000;0.000;2022-12-17T04:33:28;-4.20;87.90
70762;DHT22;58360;0.000;0.000;2022-12-17T04:36:12;-4.20;88.00
70762;DHT22;58360;0.000;0.000;2022-12-17T04:38:56;-4.10;87.90
70762;DHT22;58360;0.000;0.000;2022-12-17T04:41:40;-4.10;87.90
70762;DHT22;58360;0.000;0.000;2022-12-17T04:44:41;-4.10;88.40
70762;DHT22;58360;0.000;0.000;2022-12-17T04:47:25;-4.10;88.30
70762;DHT22;58360;0.000;0.000;2022-12-17T04:50:09;-4.20;88.10
70762;DHT22;58360;0.000;0.000;2022-12-17T04:53:01;-4.10;88.10
70762;DHT22;58360;0.000;0.000;2022-12-17T04:55:46;-4.20;88.10
70762;DHT22;58360;0.000;0.000;2022-12-17T04:58:30;-4.20;87.90
70762;DHT22;58360;0.000;0.000;2022-12-17T05:01:14;-4.20;88.20
70762;DHT22;58360;0.000;0.000;2022-12-17T05:03:59;-4.30;88.00
70762;DHT22;58360;0.000;0.000;2022-12-17T05:06:43;-4.10;87.60
70762;DHT22;58360;0.000;0.000;2022-12-17T05:09:27;-4.10;87.20
70762;DHT22;58360;0.000;0.000;2022-12-17T05:12:11;-4.20;87.30
70762;DHT22;58360;0.000;0.000;2022-12-17T05:14:55;-4.10;87.80
70762;DHT22;58360;0.000;0.000;2022-12-17T05:17:41;-4.10;88.00
70762;DHT22;58360;0.000;0.000;2022-12-17T05:23:47;-4.10;88.50
70762;DHT22;58360;0.000;0.000;2022-12-17T05:26:31;-4.20;88.30
70762;DHT22;58360;0.000;0.000;2022-12-17T05:29:15;-4.20;88.60
70762;DHT22;58360;0.000;0.000;2022-12-17T05:31:59;-4.20;88.30
70762;DHT22;58360;0.000;0.000;2022-12-17T05:34:44;-4.20;87.70
70762;DHT22;58360;0.000;0.000;2022-12-17T05:37:28;-4.20;87.30
70762;DHT22;58360;0.000;0.000;2022-12-17T05:40:16;-4.30;87.50
70762;DHT22;58360;0.000;0.000;2022-12-17T05:43:02;-4.30;87.90
70762;DHT22;58360;0.000;0.000;2022-12-17T05:45:52;-4.20;88.30
70762;DHT22;58360;0.000;0.000;2022-12-17T05:55:24;-4.40;87.90
70762;DHT22;58360;0.000;0.000;2022-12-17T05:58:10;-4.40;87.70
70762;DHT22;58360;0.000;0.000;2022-12-17T06:00:56;-4.40;87.60
70762;DHT22;58360;0.000;0.000;2022-12-17T06:03:40;-4.40;87.70
70762;DHT22;58360;0.000;0.000;2022-12-17T06:06:25;-4.30;87.70
70762;DHT22;58360;0.000;0.000;2022-12-17T06:09:09;-4.40;87.30
70762;DHT22;58360;0.000;0.000;2022-12-17T06:11:54;-4.40;87.70
70762;DHT22;58360;0.000;0.000;2022-12-17T06:14:38;-4.50;87.70
70762;DHT22;58360;0.000;0.000;2022-12-17T06:17:23;-4.40;87.60
70762;DHT22;58360;0.000;0.000;2022-12-17T06:20:08;-4.50;87.50
70762;DHT22;58360;0.000;0.000;2022-12-17T06:23:04;-4.50;87.70
70762;DHT22;58360;0.000;0.000;2022-12-17T06:25:53;-4.40;87.90
70762;DHT22;58360;0.000;0.000;2022-12-17T06:28:38;-4.40;88.20
70762;DHT22;58360;0.000;0.000;2022-12-17T06:31:22;-4.40;89.20
70762;DHT22;58360;0.000;0.000;2022-12-17T06:34:06;-4.30;88.40
70762;DHT22;58360;0.000;0.000;2022-12-17T06:36:51;-4.20;87.80
70762;DHT22;58360;0.000;0.000;2022-12-17T06:39:35;-4.20;87.50
70762;DHT22;58360;0.000;0.000;2022-12-17T06:42:19;-4.20;87.10
70762;DHT22;58360;0.000;0.000;2022-12-17T06:45:04;-4.20;87.30
70762;DHT22;58360;0.000;0.000;2022-12-17T06:48:13;-4.40;87.50
70762;DHT22;58360;0.000;0.000;2022-12-17T06:54:47;-4.50;87.50
70762;DHT22;58360;0.000;0.000;2022-12-17T07:00:56;-4.60;87.70
70762;DHT22;58360;0.000;0.000;2022-12-17T07:03:40;-4.70;87.80
70762;DHT22;58360;0.000;0.000;2022-12-17T07:06:25;-4.70;88.10
70762;DHT22;58360;0.000;0.000;2022-12-17T07:09:09;-4.60;88.40
70762;DHT22;58360;0.000;0.000;2022-12-17T07:11:53;-4.60;88.30
70762;DHT22;58360;0.000;0.000;2022-12-17T07:18:01;-4.50;87.70
70762;DHT22;58360;0.000;0.000;2022-12-17T07:20:47;-4.40;88.10
70762;DHT22;58360;0.000;0.000;2022-12-17T07:23:46;-4.40;87.30
70762;DHT22;58360;0.000;0.000;2022-12-17T07:26:33;-4.40;87.00
70762;DHT22;58360;0.000;0.000;2022-12-17T07:29:17;-4.50;87.30
70762;DHT22;58360;0.000;0.000;2022-12-17T07:32:01;-4.50;87.50
70762;DHT22;58360;0.000;0.000;2022-12-17T07:34:45;-4.50;87.50
70762;DHT22;58360;0.000;0.000;2022-12-17T07:37:30;-4.40;87.70
70762;DHT22;58360;0.000;0.000;2022-12-17T07:40:14;-4.50;88.20
70762;DHT22;58360;0.000;0.000;2022-12-17T07:42:58;-4.40;87.80
70762;DHT22;58360;0.000;0.000;2022-12-17T07:45:42;-4.40;88.00
70762;DHT22;58360;0.000;0.000;2022-12-17T07:48:27;-4.40;87.90
70762;DHT22;58360;0.000;0.000;2022-12-17T07:51:11;-4.30;87.80
70762;DHT22;58360;0.000;0.000;2022-12-17T07:53:55;-4.20;87.70
70762;DHT22;58360;0.000;0.000;2022-12-17T07:56:39;-4.20;87.20
70762;DHT22;58360;0.000;0.000;2022-12-17T07:59:24;-4.20;87.40
70762;DHT22;58360;0.000;0.000;2022-12-17T08:02:09;-4.30;87.80
70762;DHT22;58360;0.000;0.000;2022-12-17T08:04:53;-4.40;88.20
70762;DHT22;58360;0.000;0.000;2022-12-17T08:07:40;-4.30;88.50
70762;DHT22;58360;0.000;0.000;2022-12-17T08:10:24;-4.10;88.30
70762;DHT22;58360;0.000;0.000;2022-12-17T08:13:08;-4.10;87.40
70762;DHT22;58360;0.000;0.000;2022-12-17T08:23:39;-4.10;88.20
70762;DHT22;58360;0.000;0.000;2022-12-17T08:31:30;-3.80;87.70
70762;DHT22;58360;0.000;0.000;2022-12-17T09:11:07;-3.00;85.40
70762;DHT22;58360;0.000;0.000;2022-12-17T09:13:52;-2.90;84.70
70762;DHT22;58360;0.000;0.000;2022-12-17T09:16:36;-2.90;85.60
70762;DHT22;58360;0.000;0.000;2022-12-17T09:19:20;-3.30;86.00
70762;DHT22;58360;0.000;0.000;2022-12-17T09:32:20;-3.00;86.70
70762;DHT22;58360;0.000;0.000;2022-12-17T09:48:22;-2.60;86.20
70762;DHT22;58360;0.000;0.000;2022-12-17T10:02:23;-2.50;86.70
70762;DHT22;58360;0.000;0.000;2022-12-17T10:05:30;-2.40;85.60
70762;DHT22;58360;0.000;0.000;2022-12-17T10:08:17;-2.30;85.40
70762;DHT22;58360;0.000;0.000;2022-12-17T10:14:31;-2.60;86.70
70762;DHT22;58360;0.000;0.000;2022-12-17T10:20:45;-2.60;87.40
70762;DHT22;58360;0.000;0.000;2022-12-17T10:23:32;-2.50;87.80
70762;DHT22;58360;0.000;0.000;2022-12-17T10:26:25;-2.10;86.50
70762;DHT22;58360;0.000;0.000;2022-12-17T10:29:14;-2.40;85.90
70762;DHT22;58360;0.000;0.000;2022-12-17T10:32:11;-2.20;86.00
70762;DHT22;58360;0.000;0.000;2022-12-17T10:35:18;-2.20;86.30
70762;DHT22;58360;0.000;0.000;2022-12-17T10:41:34;-1.90;85.40
70762;DHT22;58360;0.000;0.000;2022-12-17T10:44:23;-1.90;85.10
70762;DHT22;58360;0.000;0.000;2022-12-17T10:47:17;-2.00;85.30
70762;DHT22;58360;0.000;0.000;2022-12-17T10:58:01;-1.80;85.50
70762;DHT22;58360;0.000;0.000;2022-12-17T11:00:47;-1.70;86.30
70762;DHT22;58360;0.000;0.000;2022-12-17T11:03:50;-1.70;86.50
70762;DHT22;58360;0.000;0.000;2022-12-17T11:06:40;-1.70;86.80
70762;DHT22;58360;0.000;0.000;2022-12-17T11:09:45;-1.40;86.80
70762;DHT22;58360;0.000;0.000;2022-12-17T11:23:44;-1.30;86.70
70762;DHT22;58360;0.000;0.000;2022-12-17T11:26:33;-1.30;87.20
70762;DHT22;58360;0.000;0.000;2022-12-17T11:29:19;-1.20;87.80
70762;DHT22;58360;0.000;0.000;2022-12-17T11:32:21;-1.40;87.90
70762;DHT22;58360;0.000;0.000;2022-12-17T11:38:38;-1.30;87.80
70762;DHT22;58360;0.000;0.000;2022-12-17T12:22:45;-0.90;89.70
70762;DHT22;58360;0.000;0.000;2022-12-17T12:35:29;-0.60;88.60
70762;DHT22;58360;0.000;0.000;2022-12-17T13:04:00;-0.30;89.20
70762;DHT22;58360;0.000;0.000;2022-12-17T13:10:34;-0.50;90.00
70762;DHT22;58360;0.000;0.000;2022-12-17T13:15:54;-0.40;90.40
70762;DHT22;58360;0.000;0.000;2022-12-17T13:21:03;-0.40;90.30
70762;DHT22;58360;0.000;0.000;2022-12-17T13:23:36;-0.20;90.20
70762;DHT22;58360;0.000;0.000;2022-12-17T13:46:58;-0.10;89.20
70762;DHT22;58360;0.000;0.000;2022-12-17T13:49:27;-0.10;89.50
70762;DHT22;58360;0.000;0.000;2022-12-17T13:55:27;0.10;88.00
70762;DHT22;58360;0.000;0.000;2022-12-17T13:57:56;0.00;87.70
70762;DHT22;58360;0.000;0.000;2022-12-17T14:00:25;-0.30;89.10
70762;DHT22;58360;0.000;0.000;2022-12-17T15:57:37;-0.60;89.60
70762;DHT22;58360;0.000;0.000;2022-12-17T16:03:35;-0.50;88.70
70762;DHT22;58360;0.000;0.000;2022-12-17T16:09:27;-1.00;90.30
70762;DHT22;58360;0.000;0.000;2022-12-17T16:11:54;-0.90;90.60
70762;DHT22;58360;0.000;0.000;2022-12-17T16:14:20;-1.20;90.80
70762;DHT22;58360;0.000;0.000;2022-12-17T16:16:47;-1.20;90.90
70762;DHT22;58360;0.000;0.000;2022-12-17T16:19:13;-0.80;91.00
70762;DHT22;58360;0.000;0.000;2022-12-17T16:21:39;-0.60;89.80
70762;DHT22;58360;0.000;0.000;2022-12-17T16:24:11;-0.60;89.30
70762;DHT22;58360;0.000;0.000;2022-12-17T16:26:37;-0.90;90.20
70762;DHT22;58360;0.000;0.000;2022-12-17T16:29:04;-0.80;90.50
70762;DHT22;58360;0.000;0.000;2022-12-17T16:31:31;-1.10;90.60
70762;DHT22;58360;0.000;0.000;2022-12-17T16:37:20;-1.30;91.10
70762;DHT22;58360;0.000;0.000;2022-12-17T16:39:45;-1.30;91.20
70762;DHT22;58360;0.000;0.000;2022-12-17T16:42:12;-1.10;91.20
70762;DHT22;58360;0.000;0.000;2022-12-17T16:44:55;-1.00;90.90
70762;DHT22;58360;0.000;0.000;2022-12-17T16:51:21;-0.90;89.40
70762;DHT22;58360;0.000;0.000;2022-12-17T17:03:56;-1.10;89.60
70762;DHT22;58360;0.000;0.000;2022-12-17T17:06:47;-1.00;90.10
70762;DHT22;58360;0.000;0.000;2022-12-17T17:09:13;-1.20;90.30
70762;DHT22;58360;0.000;0.000;2022-12-17T17:11:40;-1.30;90.40
70762;DHT22;58360;0.000;0.000;2022-12-17T17:14:22;-1.20;90.30
70762;DHT22;58360;0.000;0.000;2022-12-17T17:20:20;-1.30;90.70
70762;DHT22;58360;0.000;0.000;2022-12-17T17:26:11;-1.10;90.20
70762;DHT22;58360;0.000;0.000;2022-12-17T17:55:18;-1.40;90.60
70762;DHT22;58360;0.000;0.000;2022-12-17T17:57:44;-1.50;90.70
70762;DHT22;58360;0.000;0.000;2022-12-17T18:00:10;-1.40;90.40
70762;DHT22;58360;0.000;0.000;2022-12-17T18:02:36;-1.50;90.50
70762;DHT22;58360;0.000;0.000;2022-12-17T18:05:02;-1.30;90.90
70762;DHT22;58360;0.000;0.000;2022-12-17T18:07:28;-1.30;90.10
70762;DHT22;58360;0.000;0.000;2022-12-17T18:09:55;-1.30;90.70
70762;DHT22;58360;0.000;0.000;2022-12-17T18:12:21;-1.30;90.60
70762;DHT22;58360;0.000;0.000;2022-12-17T18:18:29;-1.50;90.70
70762;DHT22;58360;0.000;0.000;2022-12-17T18:24:20;-1.70;91.00
70762;DHT22;58360;0.000;0.000;2022-12-17T18:26:51;-1.60;91.10
70762;DHT22;58360;0.000;0.000;2022-12-17T18:37:05;-1.20;89.70
70762;DHT22;58360;0.000;0.000;2022-12-17T18:39:31;-1.30;90.20
70762;DHT22;58360;0.000;0.000;2022-12-17T18:41:57;-1.50;90.50
70762;DHT22;58360;0.000;0.000;2022-12-17T18:44:42;-1.60;90.70
70762;DHT22;58360;0.000;0.000;2022-12-17T18:47:29;-1.60;91.00
70762;DHT22;58360;0.000;0.000;2022-12-17T18:49:55;-1.70;91.00
70762;DHT22;58360;0.000;0.000;2022-12-17T18:52:21;-1.70;91.40
70762;DHT22;58360;0.000;0.000;2022-12-17T18:54:48;-1.70;91.20
70762;DHT22;58360;0.000;0.000;2022-12-17T18:57:14;-1.70;91.40
70762;DHT22;58360;0.000;0.000;2022-12-17T18:59:40;-1.60;91.50
70762;DHT22;58360;0.000;0.000;2022-12-17T19:05:29;-1.50;91.10
70762;DHT22;58360;0.000;0.000;2022-12-17T19:07:55;-1.50;90.70
70762;DHT22;58360;0.000;0.000;2022-12-17T19:10:21;-1.50;90.70
70762;DHT22;58360;0.000;0.000;2022-12-17T19:12:50;-1.50;90.90
70762;DHT22;58360;0.000;0.000;2022-12-17T19:15:16;-1.60;91.00
70762;DHT22;58360;0.000;0.000;2022-12-17T19:17:42;-1.60;90.80
70762;DHT22;58360;0.000;0.000;2022-12-17T19:20:09;-1.40;90.90
70762;DHT22;58360;0.000;0.000;2022-12-17T19:22:35;-1.40;90.70
70762;DHT22;58360;0.000;0.000;2022-12-17T19:25:01;-1.20;90.50
70762;DHT22;58360;0.000;0.000;2022-12-17T19:27:27;-1.20;90.50
70762;DHT22;58360;0.000;0.000;2022-12-17T19:30:22;-1.20;90.30
70762;DHT22;58360;0.000;0.000;2022-12-17T19:42:46;-1.30;90.00
70762;DHT22;58360;0.000;0.000;2022-12-17T19:45:12;-1.40;90.40
70762;DHT22;58360;0.000;0.000;2022-12-17T19:47:38;-1.60;90.70
70762;DHT22;58360;0.000;0.000;2022-12-17T19:50:07;-1.60;90.70
70762;DHT22;58360;0.000;0.000;2022-12-17T19:52:36;-1.60;90.50
70762;DHT22;58360;0.000;0.000;2022-12-17T19:58:25;-1.60;90.50
70762;DHT22;58360;0.000;0.000;2022-12-17T20:00:51;-1.60;90.90
70762;DHT22;58360;0.000;0.000;2022-12-17T20:03:17;-1.40;90.50
70762;DHT22;58360;0.000;0.000;2022-12-17T20:05:44;-1.50;90.00
70762;DHT22;58360;0.000;0.000;2022-12-17T20:11:40;-1.60;90.00
70762;DHT22;58360;0.000;0.000;2022-12-17T20:14:12;-1.60;90.60
70762;DHT22;58360;0.000;0.000;2022-12-17T20:16:44;-1.40;89.80
70762;DHT22;58360;0.000;0.000;2022-12-17T20:19:13;-1.50;89.90
70762;DHT22;58360;0.000;0.000;2022-12-17T20:25:02;-1.40;90.00
70762;DHT22;58360;0.000;0.000;2022-12-17T20:30:54;-1.50;89.80
70762;DHT22;58360;0.000;0.000;2022-12-17T20:36:42;-1.40;89.00
70762;DHT22;58360;0.000;0.000;2022-12-17T20:42:31;-1.80;90.20
70762;DHT22;58360;0.000;0.000;2022-12-17T20:44:57;-1.70;90.20
70762;DHT22;58360;0.000;0.000;2022-12-17T20:47:23;-1.60;90.00
70762;DHT22;58360;0.000;0.000;2022-12-17T20:49:49;-1.50;89.80
70762;DHT22;58360;0.000;0.000;2022-12-17T20:52:15;-1.40;89.00
70762;DHT22;58360;0.000;0.000;2022-12-17T20:54:44;-1.50;88.70
70762;DHT22;58360;0.000;0.000;2022-12-17T20:57:10;-1.60;89.30
70762;DHT22;58360;0.000;0.000;2022-12-17T20:59:36;-1.90;90.00
70762;DHT22;58360;0.000;0.000;2022-12-17T21:02:02;-1.70;90.10
70762;DHT22;58360;0.000;0.000;2022-12-17T21:04:28;-1.70;89.50
70762;DHT22;58360;0.000;0.000;2022-12-17T21:06:54;-1.70;89.00
70762;DHT22;58360;0.000;0.000;2022-12-17T21:09:20;-1.90;89.70
70762;DHT22;58360;0.000;0.000;2022-12-17T21:11:47;-1.80;90.00
70762;DHT22;58360;0.000;0.000;2022-12-17T21:14:15;-1.80;90.00
70762;DHT22;58360;0.000;0.000;2022-12-17T21:16:42;-2.00;90.20
70762;DHT22;58360;0.000;0.000;2022-12-17T21:19:14;-1.90;89.90
70762;DHT22;58360;0.000;0.000;2022-12-17T21:21:40;-1.70;88.90
70762;DHT22;58360;0.000;0.000;2022-12-17T21:24:07;-1.90;89.20
70762;DHT22;58360;0.000;0.000;2022-12-17T21:26:35;-1.80;88.90
70762;DHT22;58360;0.000;0.000;2022-12-17T21:29:03;-2.00;88.90
70762;DHT22;58360;0.000;0.000;2022-12-17T21:31:32;-2.10;90.00
70762;DHT22;58360;0.000;0.000;2022-12-17T21:34:01;-2.10;90.20
70762;DHT22;58360;0.000;0.000;2022-12-17T21:36:28;-2.00;90.20
70762;DHT22;58360;0.000;0.000;2022-12-17T21:38:55;-1.90;89.60
70762;DHT22;58360;0.000;0.000;2022-12-17T21:41:24;-2.10;90.00
70762;DHT22;58360;0.000;0.000;2022-12-17T21:43:53;-2.10;90.00
70762;DHT22;58360;0.000;0.000;2022-12-17T21:46:25;-2.10;89.90
70762;DHT22;58360;0.000;0.000;2022-12-17T21:48:55;-2.00;89.20
70762;DHT22;58360;0.000;0.000;2022-12-17T21:51:22;-2.00;88.80
70762;DHT22;58360;0.000;0.000;2022-12-17T21:53:52;-2.00;88.70
70762;DHT22;58360;0.000;0.000;2022-12-17T21:56:21;-1.90;88.70
70762;DHT22;58360;0.000;0.000;2022-12-17T21:58:59;-2.00;89.20
70762;DHT22;58360;0.000;0.000;2022-12-17T22:04:49;-2.20;89.70
70762;DHT22;58360;0.000;0.000;2022-12-17T22:10:41;-2.10;89.60
70762;DHT22;58360;0.000;0.000;2022-12-17T22:13:09;-1.90;88.10
70762;DHT22;58360;0.000;0.000;2022-12-17T22:15:54;-2.00;88.20
70762;DHT22;58360;0.000;0.000;2022-12-17T22:18:20;-2.20;88.90
70762;DHT22;58360;0.000;0.000;2022-12-17T22:27:37;-2.40;89.50
70762;DHT22;58360;0.000;0.000;2022-12-17T22:30:05;-2.30;89.10
70762;DHT22;58360;0.000;0.000;2022-12-17T22:32:50;-2.40;88.80
70762;DHT22;58360;0.000;0.000;2022-12-17T22:35:34;-2.40;88.90
70762;DHT22;58360;0.000;0.000;2022-12-17T22:38:11;-2.70;88.90
70762;DHT22;58360;0.000;0.000;2022-12-17T22:40:37;-2.70;89.80
70762;DHT22;58360;0.000;0.000;2022-12-17T22:43:04;-2.80;90.00
70762;DHT22;58360;0.000;0.000;2022-12-17T22:51:53;-2.90;89.90
70762;DHT22;58360;0.000;0.000;2022-12-17T23:33:01;-3.10;88.40
70762;DHT22;58360;0.000;0.000;2022-12-17T23:35:27;-3.10;88.00
70762;DHT22;58360;0.000;0.000;2022-12-17T23:45:39;-3.30;89.20
